createdAt,value
2022-10-13T00:01:17.200Z,9.80
2022-10-13T00:03:47.517Z,9.84
2022-10-13T00:06:23.483Z,9.87
2022-10-13T00:08:51.602Z,9.80
2022-10-13T00:11:25.243Z,9.85
2022-10-13T00:13:56.879Z,9.85
2022-10-13T00:16:25.641Z,9.84
2022-10-13T00:18:53.175Z,9.59
2022-10-13T00:21:24.205Z,9.86
2022-10-13T00:23:53.355Z,9.87
2022-10-13T00:26:23.225Z,9.55
2022-10-13T00:28:52.879Z,9.61
2022-10-13T00:31:23.755Z,9.72
2022-10-13T00:33:51.888Z,9.65
2022-10-13T00:36:23.316Z,9.66
2022-10-13T00:38:52.216Z,9.75
2022-10-13T00:41:21.331Z,9.78
2022-10-13T00:44:00.004Z,9.73
2022-10-13T00:46:33.615Z,9.63
2022-10-13T00:49:11.722Z,9.70
2022-10-13T00:51:48.154Z,9.58
2022-10-13T00:54:24.198Z,9.49
2022-10-13T00:56:53.427Z,9.53
2022-10-13T00:59:29.055Z,9.44
2022-10-13T01:01:59.414Z,9.44
2022-10-13T01:04:31.238Z,9.43
2022-10-13T01:06:59.083Z,9.46
2022-10-13T01:09:26.915Z,9.45
2022-10-13T01:12:27.949Z,9.29
2022-10-13T01:15:17.282Z,9.51
2022-10-13T01:18:13.983Z,9.53
2022-10-13T01:21:19.434Z,9.47
2022-10-13T01:24:05.969Z,9.38
2022-10-13T01:26:48.749Z,8.79
2022-10-13T01:29:19.046Z,8.73
2022-10-13T01:32:16.364Z,8.90
2022-10-13T01:34:52.381Z,8.84
2022-10-13T01:37:31.103Z,8.84
2022-10-13T01:40:22.166Z,8.70
2022-10-13T01:43:08.127Z,8.72
2022-10-13T01:45:43.931Z,8.91
2022-10-13T01:48:15.450Z,8.81
2022-10-13T01:50:44.590Z,8.81
2022-10-13T01:53:13.827Z,8.91
2022-10-13T01:55:56.672Z,8.93
2022-10-13T01:58:27.327Z,9.07
2022-10-13T02:01:14.720Z,8.99
2022-10-13T02:03:48.942Z,8.99
2022-10-13T02:06:26.315Z,8.76
2022-10-13T02:09:05.585Z,8.75
2022-10-13T02:11:33.262Z,8.73
2022-10-13T02:14:08.177Z,8.90
2022-10-13T02:16:43.524Z,8.88
2022-10-13T02:19:14.723Z,8.98
2022-10-13T02:21:45.249Z,9.00
2022-10-13T02:24:13.746Z,8.98
2022-10-13T02:26:41.928Z,8.99
2022-10-13T02:29:16.833Z,8.96
2022-10-13T02:31:45.517Z,8.81
2022-10-13T02:34:13.992Z,8.85
2022-10-13T02:36:42.377Z,8.79
2022-10-13T02:39:11.081Z,8.81
2022-10-13T02:41:38.904Z,8.87
2022-10-13T02:44:07.026Z,8.86
2022-10-13T02:46:35.594Z,8.80
2022-10-13T02:49:03.118Z,8.69
2022-10-13T02:51:31.871Z,8.64
2022-10-13T02:54:01.629Z,8.46
2022-10-13T02:56:29.145Z,8.50
2022-10-13T02:58:56.620Z,8.64
2022-10-13T03:01:24.055Z,8.52
2022-10-13T03:03:51.680Z,8.49
2022-10-13T03:06:19.384Z,8.41
2022-10-13T03:08:47.060Z,8.40
2022-10-13T03:11:14.574Z,8.27
2022-10-13T03:13:42.030Z,8.22
2022-10-13T03:16:09.518Z,8.45
2022-10-13T03:18:37.186Z,8.19
2022-10-13T03:21:06.764Z,8.20
2022-10-13T03:23:34.549Z,8.15
2022-10-13T03:26:02.235Z,8.24
2022-10-13T03:28:30.047Z,8.15
2022-10-13T03:31:06.115Z,7.99
2022-10-13T03:33:33.811Z,8.05
2022-10-13T03:36:03.173Z,8.11
2022-10-13T03:38:32.307Z,8.06
2022-10-13T03:41:05.770Z,7.98
2022-10-13T03:43:33.735Z,8.02
2022-10-13T03:46:02.985Z,8.00
2022-10-13T03:48:31.421Z,8.01
2022-10-13T03:50:59.865Z,7.93
2022-10-13T03:53:28.469Z,7.93
2022-10-13T03:55:56.528Z,7.94
2022-10-13T03:58:24.953Z,8.02
2022-10-13T04:00:54.253Z,7.71
2022-10-13T04:03:21.899Z,7.62
2022-10-13T04:05:49.336Z,7.56
2022-10-13T04:08:18.506Z,7.69
2022-10-13T04:10:46.408Z,7.51
2022-10-13T04:13:13.915Z,7.78
2022-10-13T04:15:41.894Z,8.02
2022-10-13T04:18:10.764Z,7.80
2022-10-13T04:20:39.954Z,7.83
2022-10-13T04:23:08.004Z,8.02
2022-10-13T04:25:39.134Z,8.03
2022-10-13T04:28:07.309Z,7.92
2022-10-13T04:30:37.019Z,7.71
2022-10-13T04:33:07.910Z,7.54
2022-10-13T04:35:40.390Z,7.70
2022-10-13T04:38:07.964Z,7.56
2022-10-13T04:40:36.055Z,7.50
2022-10-13T04:43:03.742Z,7.50
2022-10-13T04:45:32.949Z,7.50
2022-10-13T04:48:01.227Z,7.55
2022-10-13T04:50:28.869Z,7.71
2022-10-13T04:53:01.187Z,7.68
2022-10-13T04:55:28.746Z,7.50
2022-10-13T04:57:56.205Z,7.54
2022-10-13T05:00:23.830Z,7.51
2022-10-13T05:02:51.555Z,7.45
2022-10-13T05:05:19.181Z,7.39
2022-10-13T05:07:46.775Z,7.40
2022-10-13T05:10:14.943Z,7.35
2022-10-13T05:12:42.439Z,7.31
2022-10-13T05:15:10.199Z,7.49
2022-10-13T05:17:37.730Z,7.43
2022-10-13T05:20:10.083Z,7.40
2022-10-13T05:22:37.681Z,7.54
2022-10-13T05:25:05.513Z,7.59
2022-10-13T05:27:33.116Z,7.68
2022-10-13T05:30:04.527Z,7.47
2022-10-13T05:32:32.032Z,7.84
2022-10-13T05:34:59.526Z,7.76
2022-10-13T05:37:27.108Z,8.20
2022-10-13T05:39:54.791Z,8.36
2022-10-13T05:42:22.896Z,8.29
2022-10-13T05:44:51.181Z,8.29
2022-10-13T05:47:18.758Z,8.75
2022-10-13T05:49:46.188Z,8.92
2022-10-13T05:52:13.718Z,8.79
2022-10-13T05:54:50.928Z,8.98
2022-10-13T05:57:28.976Z,9.06
2022-10-13T06:00:06.528Z,9.34
2022-10-13T06:03:03.905Z,9.46
2022-10-13T06:05:32.827Z,9.79
2022-10-13T06:08:00.786Z,10.07
2022-10-13T06:10:28.508Z,10.22
2022-10-13T06:12:55.946Z,10.50
2022-10-13T06:15:28.014Z,10.61
2022-10-13T06:17:57.182Z,10.82
2022-10-13T06:20:25.317Z,11.13
2022-10-13T06:22:54.951Z,11.55
2022-10-13T06:25:22.614Z,11.80
2022-10-13T06:27:50.345Z,11.96
2022-10-13T06:30:17.990Z,12.16
2022-10-13T06:32:45.483Z,12.49
2022-10-13T06:35:12.967Z,12.38
2022-10-13T06:37:40.452Z,12.88
2022-10-13T06:40:11.378Z,13.24
2022-10-13T06:42:38.934Z,13.50
2022-10-13T06:45:10.105Z,13.83
2022-10-13T06:47:41.044Z,14.20
2022-10-13T06:50:08.949Z,14.34
2022-10-13T06:52:37.699Z,14.73
2022-10-13T06:55:05.744Z,14.92
2022-10-13T06:57:33.900Z,15.21
2022-10-13T07:00:05.724Z,15.54
2022-10-13T07:02:34.521Z,15.39
2022-10-13T07:05:02.170Z,15.62
2022-10-13T07:07:29.782Z,15.76
2022-10-13T07:09:57.547Z,16.36
2022-10-13T07:12:57.359Z,16.85
2022-10-13T07:15:25.667Z,17.41
2022-10-13T07:17:54.981Z,19.31
2022-10-13T07:20:24.191Z,21.10
2022-10-13T07:22:54.233Z,22.57
2022-10-13T07:25:22.679Z,24.55
2022-10-13T07:27:50.183Z,25.80
2022-10-13T07:30:18.641Z,27.33
2022-10-13T07:32:48.366Z,28.86
2022-10-13T07:35:16.113Z,24.13
2022-10-13T07:37:44.873Z,24.78
2022-10-13T07:40:12.907Z,26.72
2022-10-13T07:42:40.408Z,23.15
2022-10-13T07:45:08.404Z,20.88
2022-10-13T07:47:36.034Z,21.20
2022-10-13T07:50:03.968Z,26.98
2022-10-13T07:52:31.709Z,24.83
2022-10-13T07:54:59.319Z,24.40
2022-10-13T07:57:27.740Z,25.50
2022-10-13T07:59:55.495Z,23.45
2022-10-13T08:02:23.208Z,23.96
2022-10-13T08:04:51.102Z,23.06
2022-10-13T08:07:19.205Z,25.24
2022-10-13T08:09:48.081Z,27.09
2022-10-13T08:12:15.834Z,30.43
2022-10-13T08:14:43.386Z,30.85
2022-10-13T08:17:11.390Z,33.22
2022-10-13T08:19:38.918Z,33.98
2022-10-13T08:22:09.621Z,35.23
2022-10-13T08:24:37.693Z,36.16
2022-10-13T08:27:05.179Z,36.13
2022-10-13T08:29:35.672Z,36.05
2022-10-13T08:32:03.350Z,37.64
2022-10-13T08:34:30.894Z,34.52
2022-10-13T08:37:00.251Z,36.37
2022-10-13T08:39:29.501Z,38.67
2022-10-13T08:41:57.969Z,39.18
2022-10-13T08:45:10.440Z,37.21
2022-10-13T08:47:29.451Z,35.96
2022-10-13T08:50:01.186Z,35.59
2022-10-13T08:52:41.945Z,38.28
2022-10-13T08:55:20.383Z,38.77
2022-10-13T08:57:48.148Z,38.45
2022-10-13T09:00:17.593Z,39.30
2022-10-13T09:02:50.912Z,41.29
2022-10-13T09:05:37.372Z,36.16
2022-10-13T09:08:15.707Z,34.95
2022-10-13T09:10:51.325Z,34.22
2022-10-13T09:13:20.370Z,33.10
2022-10-13T09:15:52.573Z,35.04
2022-10-13T09:18:28.780Z,38.13
2022-10-13T09:21:22.953Z,37.56
2022-10-13T09:23:52.219Z,37.06
2022-10-13T09:26:23.483Z,38.86
2022-10-13T09:28:52.638Z,33.21
2022-10-13T09:31:30.585Z,37.83
2022-10-13T09:34:09.199Z,36.51
2022-10-13T09:36:37.963Z,34.86
2022-10-13T09:39:16.459Z,32.62
2022-10-13T09:41:45.282Z,31.86
2022-10-13T09:44:33.248Z,33.06
2022-10-13T09:47:04.374Z,31.27
2022-10-13T09:49:43.621Z,29.00
2022-10-13T09:52:14.246Z,30.24
2022-10-13T09:54:41.747Z,31.90
2022-10-13T09:57:24.786Z,32.55
2022-10-13T10:00:10.656Z,31.74
2022-10-13T10:02:48.680Z,34.93
2022-10-13T10:05:38.251Z,34.20
2022-10-13T10:08:33.680Z,34.06
2022-10-13T10:11:28.821Z,33.01
2022-10-13T10:13:57.910Z,32.44
2022-10-13T10:16:38.753Z,33.07
2022-10-13T10:19:18.085Z,33.51
2022-10-13T10:21:55.881Z,33.57
2022-10-13T10:24:45.498Z,34.49
2022-10-13T10:27:26.514Z,31.86
2022-10-13T10:30:12.966Z,31.33
2022-10-13T10:32:51.621Z,31.63
2022-10-13T10:35:49.103Z,30.73
2022-10-13T10:38:36.766Z,31.90
2022-10-13T10:41:37.499Z,31.35
2022-10-13T10:44:12.780Z,30.19
2022-10-13T10:46:48.253Z,31.99
2022-10-13T10:49:23.543Z,33.46
2022-10-13T10:51:51.819Z,31.88
2022-10-13T10:54:24.008Z,30.19
2022-10-13T10:56:58.509Z,30.08
2022-10-13T10:59:31.443Z,30.67
2022-10-13T11:02:15.066Z,30.94
2022-10-13T11:04:44.173Z,32.18
2022-10-13T11:07:23.746Z,31.14
2022-10-13T11:09:54.947Z,33.36
2022-10-13T11:12:25.638Z,30.69
2022-10-13T11:15:11.075Z,31.82
2022-10-13T11:17:41.263Z,33.06
2022-10-13T11:20:21.198Z,31.42
2022-10-13T11:22:57.572Z,30.69
2022-10-13T11:25:40.040Z,31.15
2022-10-13T11:28:28.218Z,31.68
2022-10-13T11:31:17.055Z,32.55
2022-10-13T11:33:45.731Z,31.62
2022-10-13T11:36:32.797Z,32.19
2022-10-13T11:39:26.078Z,32.30
2022-10-13T11:42:02.628Z,30.48
2022-10-13T11:44:51.495Z,31.41
2022-10-13T11:47:29.746Z,31.93
2022-10-13T11:49:57.451Z,29.55
2022-10-13T11:52:40.426Z,31.26
2022-10-13T11:55:19.626Z,31.15
2022-10-13T11:57:48.391Z,31.71
2022-10-13T12:00:19.019Z,31.45
2022-10-13T12:03:22.956Z,31.96
2022-10-13T12:05:52.807Z,30.86
2022-10-13T12:08:23.423Z,30.42
2022-10-13T12:10:57.328Z,31.47
2022-10-13T12:13:30.857Z,32.45
2022-10-13T12:16:06.082Z,31.78
2022-10-13T12:18:38.287Z,31.61
2022-10-13T12:21:20.572Z,32.54
2022-10-13T12:23:53.151Z,32.00
2022-10-13T12:26:24.684Z,33.81
2022-10-13T12:29:14.409Z,34.44
2022-10-13T12:31:48.512Z,32.97
2022-10-13T12:34:19.229Z,32.61
2022-10-13T12:36:55.221Z,33.72
2022-10-13T12:39:25.546Z,31.50
2022-10-13T12:41:54.519Z,30.28
2022-10-13T12:44:26.165Z,30.48
2022-10-13T12:46:58.794Z,30.03
2022-10-13T12:50:14.702Z,30.86
2022-10-13T12:52:42.374Z,32.14
2022-10-13T12:55:19.268Z,30.39
2022-10-13T12:57:49.623Z,31.23
2022-10-13T13:00:20.395Z,31.08
2022-10-13T13:03:03.715Z,32.26
2022-10-13T13:05:38.392Z,31.60
2022-10-13T13:08:29.829Z,31.07
2022-10-13T13:11:20.129Z,30.95
2022-10-13T13:13:48.522Z,29.96
2022-10-13T13:16:16.820Z,29.11
2022-10-13T13:18:45.595Z,29.56
2022-10-13T13:21:16.031Z,30.00
2022-10-13T13:23:51.034Z,29.68
2022-10-13T13:26:23.448Z,28.54
2022-10-13T13:28:53.538Z,28.15
2022-10-13T13:31:24.344Z,26.62
2022-10-13T13:33:53.152Z,26.31
2022-10-13T13:36:26.123Z,25.84
2022-10-13T13:38:54.885Z,25.18
2022-10-13T13:41:24.086Z,25.59
2022-10-13T13:43:51.579Z,25.62
2022-10-13T13:46:25.053Z,26.32
2022-10-13T13:48:52.786Z,27.24
2022-10-13T13:51:20.288Z,27.28
2022-10-13T13:53:48.618Z,24.85
2022-10-13T13:56:19.759Z,24.45
2022-10-13T13:58:47.924Z,23.71
2022-10-13T14:01:15.909Z,23.51
2022-10-13T14:03:43.863Z,23.08
2022-10-13T14:06:19.909Z,22.23
2022-10-13T14:08:47.920Z,22.18
2022-10-13T14:11:16.782Z,22.17
2022-10-13T14:13:44.380Z,21.99
2022-10-13T14:16:17.864Z,21.75
2022-10-13T14:18:45.766Z,22.21
2022-10-13T14:21:13.421Z,22.20
2022-10-13T14:23:45.677Z,21.88
2022-10-13T14:26:14.018Z,21.79
2022-10-13T14:28:43.161Z,21.70
2022-10-13T14:31:11.998Z,21.59
2022-10-13T14:33:41.905Z,21.43
2022-10-13T14:36:10.012Z,21.22
2022-10-13T14:38:37.523Z,21.12
2022-10-13T14:41:06.338Z,20.74
2022-10-13T14:43:33.889Z,20.95
2022-10-13T14:46:05.958Z,20.99
2022-10-13T14:48:35.227Z,21.13
2022-10-13T14:51:10.652Z,20.93
2022-10-13T14:53:43.502Z,20.80
2022-10-13T14:56:27.074Z,20.50
2022-10-13T14:58:57.570Z,20.69
2022-10-13T15:01:33.361Z,20.69
2022-10-13T15:04:01.962Z,20.61
2022-10-13T15:06:31.975Z,20.37
2022-10-13T15:09:00.118Z,20.24
2022-10-13T15:11:27.960Z,20.25
2022-10-13T15:13:56.309Z,19.95
2022-10-13T15:16:27.905Z,19.91
2022-10-13T15:18:56.224Z,19.79
2022-10-13T15:21:24.672Z,19.76
2022-10-13T15:23:52.267Z,19.76
2022-10-13T15:26:20.625Z,19.73
2022-10-13T15:28:50.897Z,19.55
2022-10-13T15:31:21.994Z,19.30
2022-10-13T15:33:52.109Z,18.84
2022-10-13T15:36:25.675Z,18.61
2022-10-13T15:38:53.200Z,18.49
2022-10-13T15:41:23.000Z,18.35
2022-10-13T15:43:52.116Z,17.95
2022-10-13T15:46:26.170Z,17.78
2022-10-13T15:48:55.195Z,17.24
2022-10-13T15:51:24.335Z,17.10
2022-10-13T15:53:52.514Z,16.83
2022-10-13T15:56:20.997Z,16.70
2022-10-13T15:58:48.609Z,16.36
2022-10-13T16:01:17.645Z,16.24
2022-10-13T16:03:45.412Z,16.08
2022-10-13T16:06:14.351Z,15.91
2022-10-13T16:08:51.597Z,15.65
2022-10-13T16:11:21.138Z,15.40
2022-10-13T16:13:50.717Z,15.29
2022-10-13T16:16:19.149Z,15.14
2022-10-13T16:18:46.668Z,15.02
2022-10-13T16:21:19.007Z,14.94
2022-10-13T16:23:47.613Z,14.87
2022-10-13T16:26:17.449Z,14.69
2022-10-13T16:28:46.011Z,14.57
2022-10-13T16:31:15.932Z,14.49
2022-10-13T16:33:45.213Z,14.37
2022-10-13T16:36:15.683Z,14.34
2022-10-13T16:38:44.128Z,14.21
2022-10-13T16:41:14.643Z,13.99
2022-10-13T16:43:42.818Z,13.88
2022-10-13T16:46:13.411Z,13.77
2022-10-13T16:48:42.251Z,13.70
2022-10-13T16:51:13.645Z,13.56
2022-10-13T16:53:41.387Z,13.41
2022-10-13T16:56:09.376Z,13.36
2022-10-13T16:58:36.882Z,13.15
2022-10-13T17:01:11.710Z,13.24
2022-10-13T17:03:39.858Z,13.10
2022-10-13T17:06:07.526Z,12.90
2022-10-13T17:08:35.168Z,12.82
2022-10-13T17:11:05.026Z,12.77
2022-10-13T17:13:33.932Z,12.87
2022-10-13T17:16:01.773Z,12.76
2022-10-13T17:18:29.644Z,12.70
2022-10-13T17:21:02.373Z,12.66
2022-10-13T17:23:31.107Z,12.45
2022-10-13T17:26:04.517Z,12.51
2022-10-13T17:28:33.464Z,12.19
2022-10-13T17:31:05.217Z,12.23
2022-10-13T17:33:35.126Z,12.17
2022-10-13T17:36:07.032Z,12.09
2022-10-13T17:38:35.035Z,12.12
2022-10-13T17:41:05.194Z,12.08
2022-10-13T17:43:34.584Z,12.07
2022-10-13T17:46:35.190Z,11.84
2022-10-13T17:49:01.732Z,11.81
2022-10-13T17:51:29.300Z,11.57
2022-10-13T17:54:00.590Z,11.41
2022-10-13T17:56:29.061Z,11.44
2022-10-13T17:58:57.001Z,11.36
2022-10-13T18:01:31.649Z,11.38
2022-10-13T18:04:02.296Z,11.13
2022-10-13T18:06:37.885Z,11.24
2022-10-13T18:09:18.377Z,11.19
2022-10-13T18:11:50.599Z,11.16
2022-10-13T18:14:24.452Z,11.07
2022-10-13T18:16:52.861Z,10.90
2022-10-13T18:19:21.451Z,10.92
2022-10-13T18:21:49.509Z,10.93
2022-10-13T18:24:17.193Z,10.86
2022-10-13T18:26:44.994Z,10.90
2022-10-13T18:29:12.892Z,10.87
2022-10-13T18:31:41.585Z,10.85
2022-10-13T18:34:15.613Z,10.82
2022-10-13T18:36:47.250Z,10.78
2022-10-13T18:39:17.792Z,10.75
2022-10-13T18:41:49.890Z,10.69
2022-10-13T18:44:18.053Z,10.57
2022-10-13T18:46:48.469Z,10.55
2022-10-13T18:49:19.040Z,10.63
2022-10-13T18:51:46.718Z,10.60
2022-10-13T18:54:14.272Z,10.60
2022-10-13T18:56:41.746Z,10.57
2022-10-13T18:59:10.699Z,10.49
2022-10-13T19:01:39.442Z,10.47
2022-10-13T19:04:07.234Z,10.43
2022-10-13T19:06:35.562Z,10.51
2022-10-13T19:09:05.885Z,10.57
2022-10-13T19:11:37.341Z,10.30
2022-10-13T19:14:07.066Z,10.49
2022-10-13T19:16:39.533Z,10.45
2022-10-13T19:19:10.275Z,10.42
2022-10-13T19:21:39.052Z,10.59
2022-10-13T19:24:09.588Z,10.39
2022-10-13T19:26:37.733Z,10.41
2022-10-13T19:29:11.427Z,10.40
2022-10-13T19:31:40.645Z,10.28
2022-10-13T19:34:10.088Z,10.22
2022-10-13T19:36:43.295Z,10.35
2022-10-13T19:39:19.900Z,10.38
2022-10-13T19:41:48.851Z,10.21
2022-10-13T19:44:18.220Z,10.20
2022-10-13T19:46:47.405Z,10.15
2022-10-13T19:49:17.532Z,10.13
2022-10-13T19:51:46.505Z,10.02
2022-10-13T19:54:14.850Z,10.08
2022-10-13T19:56:47.525Z,10.35
2022-10-13T19:59:17.429Z,9.84
2022-10-13T20:01:45.243Z,9.89
2022-10-13T20:04:18.505Z,9.93
2022-10-13T20:06:47.455Z,9.87
2022-10-13T20:09:24.734Z,9.75
2022-10-13T20:11:55.531Z,9.91
2022-10-13T20:14:24.489Z,9.88
2022-10-13T20:16:59.559Z,10.18
2022-10-13T20:19:27.213Z,10.11
2022-10-13T20:21:54.813Z,9.93
2022-10-13T20:24:23.401Z,10.32
2022-10-13T20:26:53.349Z,10.31
2022-10-13T20:29:23.424Z,10.40
2022-10-13T20:31:50.970Z,10.50
2022-10-13T20:34:18.406Z,10.34
2022-10-13T20:36:45.952Z,10.45
2022-10-13T20:39:13.510Z,10.22
2022-10-13T20:41:42.180Z,10.39
2022-10-13T20:44:10.559Z,10.42
2022-10-13T20:46:38.060Z,10.50
2022-10-13T20:49:13.595Z,10.05
2022-10-13T20:51:42.870Z,10.29
2022-10-13T20:54:12.033Z,10.12
2022-10-13T20:56:39.907Z,9.99
2022-10-13T20:59:10.699Z,10.03
2022-10-13T21:01:38.739Z,10.06
2022-10-13T21:04:06.774Z,9.95
2022-10-13T21:06:35.801Z,10.01
2022-10-13T21:09:05.392Z,9.95
2022-10-13T21:11:33.336Z,9.95
2022-10-13T21:14:06.239Z,9.74
2022-10-13T21:16:34.280Z,9.79
2022-10-13T21:19:01.945Z,9.96
2022-10-13T21:21:31.873Z,10.05
2022-10-13T21:24:01.670Z,9.92
2022-10-13T21:26:31.601Z,9.46
2022-10-13T21:29:00.732Z,9.27
2022-10-13T21:31:29.425Z,9.40
2022-10-13T21:33:56.990Z,9.25
2022-10-13T21:36:32.991Z,9.25
2022-10-13T21:39:03.644Z,8.99
2022-10-13T21:41:31.597Z,9.09
2022-10-13T21:43:59.126Z,9.21
2022-10-13T21:46:32.512Z,9.24
2022-10-13T21:49:06.414Z,9.31
2022-10-13T21:51:37.838Z,9.45
2022-10-13T21:54:13.881Z,9.45
2022-10-13T21:56:42.187Z,9.66
2022-10-13T21:59:12.134Z,9.64
2022-10-13T22:01:39.726Z,9.48
2022-10-13T22:04:14.110Z,9.73
2022-10-13T22:06:42.171Z,9.78
2022-10-13T22:09:09.953Z,9.81
2022-10-13T22:11:39.394Z,9.96
2022-10-13T22:14:12.983Z,9.97
2022-10-13T22:16:46.807Z,9.87
2022-10-13T22:19:15.439Z,9.73
2022-10-13T22:21:45.197Z,9.54
2022-10-13T22:24:16.342Z,9.58
2022-10-13T22:26:45.461Z,9.70
2022-10-13T22:29:15.595Z,9.64
2022-10-13T22:31:43.841Z,9.62
2022-10-13T22:34:13.792Z,9.68
2022-10-13T22:36:44.772Z,9.65
2022-10-13T22:39:13.636Z,9.62
2022-10-13T22:41:41.685Z,9.54
2022-10-13T22:44:09.486Z,9.34
2022-10-13T22:46:38.487Z,9.37
2022-10-13T22:49:09.684Z,9.34
2022-10-13T22:51:37.438Z,9.25
2022-10-13T22:54:05.622Z,9.37
2022-10-13T22:56:34.571Z,9.20
2022-10-13T22:59:05.637Z,9.29
2022-10-13T23:01:33.256Z,9.14
2022-10-13T23:04:00.886Z,9.20
2022-10-13T23:06:30.835Z,9.20
2022-10-13T23:09:02.475Z,9.11
2022-10-13T23:11:30.372Z,9.15
2022-10-13T23:13:57.923Z,9.10
2022-10-13T23:16:26.869Z,8.96
2022-10-13T23:18:55.184Z,9.03
2022-10-13T23:21:28.555Z,9.10
2022-10-13T23:23:58.452Z,9.23
2022-10-13T23:26:26.483Z,9.20
2022-10-13T23:28:56.331Z,9.18
2022-10-13T23:31:24.869Z,9.01
2022-10-13T23:33:52.473Z,9.23
2022-10-13T23:36:24.147Z,9.04
2022-10-13T23:38:56.251Z,9.07
2022-10-13T23:41:24.115Z,8.96
2022-10-13T23:43:51.658Z,9.17
2022-10-13T23:46:19.880Z,9.03
2022-10-13T23:48:47.740Z,9.13
2022-10-13T23:51:19.893Z,9.17
2022-10-13T23:53:47.388Z,9.02
2022-10-13T23:56:16.022Z,9.04
2022-10-13T23:58:44.430Z,9.03
